Diablo, CA (94528)

10:55 AM PST on December 22, 2014 (GMT -0800)
Montair School | Change Station
CLOSE
Current Station
Personal Weather Station
Location: Danville, CA
Elevation: 394 ft
Nearby Weather Stations

Elev 394 ft 37.82 °N, 122.00 °W | Updated 6 seconds ago

Mostly Cloudy
Mostly Cloudy
55.8 °F
Feels Like 55.8 °F
N
0.0
Wind Variable Wind from North
Gusts 1.0 mph

Today
High -- | Low -- °F
--% Chance of Precip.
Yesterday
High -- | Low -- °F
Precip. -- in
7:20 AM 4:52 PM
New Moon, 1% visible
Pressure 30.25 in
Visibility 10.0 miles
Clouds Overcast 800 ft
Dew Point 54 °F
Humidity 95%
Rainfall 0.00 in
Snow Depth Not available.
UV 1 out of 12
Pollen 4.40 out of 12
Air Quality Not available.
Flu Activity Not available.
METAR KCCR 221753Z 00000KT 10SM OVC008 15/12 A3029 RMK AO2 CIG 005V010 SLP244 T01500122 10150 20139 50008

More Conditions Fewer Conditions

Pressure 30.25 in
Visibility 10.0 miles
Clouds Overcast 800 ft
Dew Point 54 °F
Humidity 95%
Rainfall 0.00 in
Snow Depth Not available.
UV 1 out of 12
Pollen 4.40 out of 12
Air Quality Not available.
Flu Activity Not available.
METAR KCCR 221753Z 00000KT 10SM OVC008 15/12 A3029 RMK AO2 CIG 005V010 SLP244 T01500122 10150 20139 50008

More Conditions Fewer Conditions

10-Day Weather Forecast

Almanac

Astronomy

Dec. 22, 2014 Rise Set
Actual Time
Civil Twilight
Nautical Twilight
Astronomical Twilight
Moon
Length of Visible Light
Length of Day
Tomorrow will be .
, % of the Moon is Illuminated

Today's Extremes

State Highs State Lows

Community

WunderPhotos

Upload Photos

1,779,687 photos uploaded!

WunderBlogs® & News

Nearby

Air Quality

  Air Quality AQ Index Pollutant
Not available.

Snow Depth

Station Depth Elevation

Earthquake Activity

City Distance Mag. Time & Date
Minimum magnitude displayed is 2.5.

Coastal Water Temperatures

Place Temperature

Nearby Weather Stations